sensor_id;sensor_type;location;lat;lon;timestamp;temperature;humidity
27890;DHT22;15238;49.082;9.102;2022-11-15T00:01:08;9.70;99.90
27890;DHT22;15238;49.082;9.102;2022-11-15T00:03:09;9.70;99.90
27890;DHT22;15238;49.082;9.102;2022-11-15T00:05:09;9.70;99.90
27890;DHT22;15238;49.082;9.102;2022-11-15T00:07:10;9.70;99.90
27890;DHT22;15238;49.082;9.102;2022-11-15T00:09:10;9.70;99.90
27890;DHT22;15238;49.082;9.102;2022-11-15T00:11:12;9.80;99.90
27890;DHT22;15238;49.082;9.102;2022-11-15T00:13:13;9.80;99.90
27890;DHT22;15238;49.082;9.102;2022-11-15T00:15:13;9.80;99.90
27890;DHT22;15238;49.082;9.102;2022-11-15T00:17:14;9.80;99.90
27890;DHT22;15238;49.082;9.102;2022-11-15T00:19:14;9.80;99.90
27890;DHT22;15238;49.082;9.102;2022-11-15T00:21:15;9.80;99.90
27890;DHT22;15238;49.082;9.102;2022-11-15T00:23:16;9.80;99.90
27890;DHT22;15238;49.082;9.102;2022-11-15T00:25:17;9.90;99.90
27890;DHT22;15238;49.082;9.102;2022-11-15T00:27:17;9.80;99.90
27890;DHT22;15238;49.082;9.102;2022-11-15T00:29:18;9.80;99.90
27890;DHT22;15238;49.082;9.102;2022-11-15T00:31:18;9.70;99.90
27890;DHT22;15238;49.082;9.102;2022-11-15T00:33:19;9.70;99.90
27890;DHT22;15238;49.082;9.102;2022-11-15T00:35:20;9.60;99.90
27890;DHT22;15238;49.082;9.102;2022-11-15T00:37:20;9.60;99.90
27890;DHT22;15238;49.082;9.102;2022-11-15T00:39:21;9.50;99.90
27890;DHT22;15238;49.082;9.102;2022-11-15T00:41:22;9.50;99.90
27890;DHT22;15238;49.082;9.102;2022-11-15T00:43:22;9.40;99.90
27890;DHT22;15238;49.082;9.102;2022-11-15T00:45:23;9.40;99.90
27890;DHT22;15238;49.082;9.102;2022-11-15T00:47:23;9.30;99.90
27890;DHT22;15238;49.082;9.102;2022-11-15T00:49:24;9.30;99.90
27890;DHT22;15238;49.082;9.102;2022-11-15T00:51:24;9.20;99.90
27890;DHT22;15238;49.082;9.102;2022-11-15T00:53:25;9.20;99.90
27890;DHT22;15238;49.082;9.102;2022-11-15T00:55:25;9.10;99.90
27890;DHT22;15238;49.082;9.102;2022-11-15T00:57:26;9.00;99.90
27890;DHT22;15238;49.082;9.102;2022-11-15T00:59:27;9.00;99.90
27890;DHT22;15238;49.082;9.102;2022-11-15T01:01:27;8.90;99.90
27890;DHT22;15238;49.082;9.102;2022-11-15T01:03:28;8.90;99.90
27890;DHT22;15238;49.082;9.102;2022-11-15T01:05:28;8.80;99.90
27890;DHT22;15238;49.082;9.102;2022-11-15T01:07:29;8.70;99.90
27890;DHT22;15238;49.082;9.102;2022-11-15T01:09:29;8.70;99.90
27890;DHT22;15238;49.082;9.102;2022-11-15T01:11:30;8.60;99.90
27890;DHT22;15238;49.082;9.102;2022-11-15T01:13:35;8.60;99.90
27890;DHT22;15238;49.082;9.102;2022-11-15T01:15:39;8.50;99.90
27890;DHT22;15238;49.082;9.102;2022-11-15T01:17:40;8.50;99.90
27890;DHT22;15238;49.082;9.102;2022-11-15T01:19:41;8.40;99.90
27890;DHT22;15238;49.082;9.102;2022-11-15T01:21:41;8.40;99.90
27890;DHT22;15238;49.082;9.102;2022-11-15T01:23:42;8.30;99.90
27890;DHT22;15238;49.082;9.102;2022-11-15T01:25:43;8.30;99.90
27890;DHT22;15238;49.082;9.102;2022-11-15T01:27:43;8.20;99.90
27890;DHT22;15238;49.082;9.102;2022-11-15T01:29:44;8.10;99.90
27890;DHT22;15238;49.082;9.102;2022-11-15T01:31:44;8.00;99.90
27890;DHT22;15238;49.082;9.102;2022-11-15T01:33:46;7.90;99.90
27890;DHT22;15238;49.082;9.102;2022-11-15T01:35:47;7.90;99.90
27890;DHT22;15238;49.082;9.102;2022-11-15T01:37:47;7.80;99.90
27890;DHT22;15238;49.082;9.102;2022-11-15T01:39:48;7.80;99.90
27890;DHT22;15238;49.082;9.102;2022-11-15T01:41:48;7.70;99.90
27890;DHT22;15238;49.082;9.102;2022-11-15T01:43:53;7.60;99.90
27890;DHT22;15238;49.082;9.102;2022-11-15T01:46:04;7.60;99.90
27890;DHT22;15238;49.082;9.102;2022-11-15T01:48:09;7.50;99.90
27890;DHT22;15238;49.082;9.102;2022-11-15T01:50:14;7.50;99.90
27890;DHT22;15238;49.082;9.102;2022-11-15T01:52:19;7.50;99.90
27890;DHT22;15238;49.082;9.102;2022-11-15T01:54:21;7.50;99.90
27890;DHT22;15238;49.082;9.102;2022-11-15T01:56:25;7.40;99.90
27890;DHT22;15238;49.082;9.102;2022-11-15T01:58:28;7.40;99.90
27890;DHT22;15238;49.082;9.102;2022-11-15T02:00:29;7.30;99.90
27890;DHT22;15238;49.082;9.102;2022-11-15T02:02:32;7.30;99.90
27890;DHT22;15238;49.082;9.102;2022-11-15T02:04:36;7.30;99.90
27890;DHT22;15238;49.082;9.102;2022-11-15T02:06:39;7.30;99.90
27890;DHT22;15238;49.082;9.102;2022-11-15T02:08:40;7.30;99.90
27890;DHT22;15238;49.082;9.102;2022-11-15T02:10:41;7.30;99.90
27890;DHT22;15238;49.082;9.102;2022-11-15T02:12:41;7.40;99.90
27890;DHT22;15238;49.082;9.102;2022-11-15T02:14:46;7.50;99.90
27890;DHT22;15238;49.082;9.102;2022-11-15T02:16:58;7.50;99.90
27890;DHT22;15238;49.082;9.102;2022-11-15T02:31:35;7.40;99.90
27890;DHT22;15238;49.082;9.102;2022-11-15T02:36:06;7.50;99.90
27890;DHT22;15238;49.082;9.102;2022-11-15T02:42:41;7.40;99.90
27890;DHT22;15238;49.082;9.102;2022-11-15T02:45:07;7.30;99.90
27890;DHT22;15238;49.082;9.102;2022-11-15T02:47:12;7.40;99.90
27890;DHT22;15238;49.082;9.102;2022-11-15T02:49:15;7.40;99.90
27890;DHT22;15238;49.082;9.102;2022-11-15T02:51:16;7.50;99.90
27890;DHT22;15238;49.082;9.102;2022-11-15T02:53:17;7.50;99.90
27890;DHT22;15238;49.082;9.102;2022-11-15T02:55:32;7.50;99.90
27890;DHT22;15238;49.082;9.102;2022-11-15T02:57:44;7.60;99.90
27890;DHT22;15238;49.082;9.102;2022-11-15T03:00:12;7.70;99.90
27890;DHT22;15238;49.082;9.102;2022-11-15T03:07:01;7.80;99.90
27890;DHT22;15238;49.082;9.102;2022-11-15T03:09:13;7.80;99.90
27890;DHT22;15238;49.082;9.102;2022-11-15T03:11:18;7.90;99.90
27890;DHT22;15238;49.082;9.102;2022-11-15T03:13:26;7.90;99.90
27890;DHT22;15238;49.082;9.102;2022-11-15T03:15:31;7.90;99.90
27890;DHT22;15238;49.082;9.102;2022-11-15T03:17:36;8.00;99.90
27890;DHT22;15238;49.082;9.102;2022-11-15T03:19:44;8.10;99.90
27890;DHT22;15238;49.082;9.102;2022-11-15T03:21:46;8.10;99.90
27890;DHT22;15238;49.082;9.102;2022-11-15T03:23:49;8.10;99.90
27890;DHT22;15238;49.082;9.102;2022-11-15T03:25:52;8.10;99.90
27890;DHT22;15238;49.082;9.102;2022-11-15T03:27:57;8.10;99.90
27890;DHT22;15238;49.082;9.102;2022-11-15T03:30:02;8.20;99.90
27890;DHT22;15238;49.082;9.102;2022-11-15T03:32:15;8.20;99.90
27890;DHT22;15238;49.082;9.102;2022-11-15T03:36:27;8.30;99.90
27890;DHT22;15238;49.082;9.102;2022-11-15T03:38:30;8.30;99.90
27890;DHT22;15238;49.082;9.102;2022-11-15T03:40:58;8.30;99.90
27890;DHT22;15238;49.082;9.102;2022-11-15T03:43:36;8.30;99.90
27890;DHT22;15238;49.082;9.102;2022-11-15T03:45:45;8.30;99.90
27890;DHT22;15238;49.082;9.102;2022-11-15T03:50:01;8.30;99.90
27890;DHT22;15238;49.082;9.102;2022-11-15T03:52:04;8.30;99.90
27890;DHT22;15238;49.082;9.102;2022-11-15T03:54:05;8.30;99.90
27890;DHT22;15238;49.082;9.102;2022-11-15T03:56:06;8.30;99.90
27890;DHT22;15238;49.082;9.102;2022-11-15T03:58:06;8.40;99.90
27890;DHT22;15238;49.082;9.102;2022-11-15T04:00:08;8.40;99.90
27890;DHT22;15238;49.082;9.102;2022-11-15T04:02:08;8.40;99.90
27890;DHT22;15238;49.082;9.102;2022-11-15T04:04:09;8.50;99.90
27890;DHT22;15238;49.082;9.102;2022-11-15T04:06:09;8.50;99.90
27890;DHT22;15238;49.082;9.102;2022-11-15T04:08:10;8.60;99.90
27890;DHT22;15238;49.082;9.102;2022-11-15T04:10:11;8.60;99.90
27890;DHT22;15238;49.082;9.102;2022-11-15T04:12:13;8.70;99.90
27890;DHT22;15238;49.082;9.102;2022-11-15T04:14:30;8.70;99.90
27890;DHT22;15238;49.082;9.102;2022-11-15T04:16:31;8.80;99.90
27890;DHT22;15238;49.082;9.102;2022-11-15T04:18:31;8.80;99.90
27890;DHT22;15238;49.082;9.102;2022-11-15T04:20:32;8.90;99.90
27890;DHT22;15238;49.082;9.102;2022-11-15T04:22:56;8.90;99.90
27890;DHT22;15238;49.082;9.102;2022-11-15T04:25:15;9.00;99.90
27890;DHT22;15238;49.082;9.102;2022-11-15T04:27:16;9.00;99.90
27890;DHT22;15238;49.082;9.102;2022-11-15T04:29:16;9.00;99.90
27890;DHT22;15238;49.082;9.102;2022-11-15T04:31:35;9.00;99.90
27890;DHT22;15238;49.082;9.102;2022-11-15T04:33:35;9.00;99.90
27890;DHT22;15238;49.082;9.102;2022-11-15T04:35:36;9.10;99.90
27890;DHT22;15238;49.082;9.102;2022-11-15T04:37:36;9.10;99.90
27890;DHT22;15238;49.082;9.102;2022-11-15T04:39:38;9.10;99.90
27890;DHT22;15238;49.082;9.102;2022-11-15T04:41:38;9.10;99.90
27890;DHT22;15238;49.082;9.102;2022-11-15T04:43:39;9.10;99.90
27890;DHT22;15238;49.082;9.102;2022-11-15T04:45:39;9.20;99.90
27890;DHT22;15238;49.082;9.102;2022-11-15T04:47:40;9.20;99.90
27890;DHT22;15238;49.082;9.102;2022-11-15T04:49:43;9.20;99.90
27890;DHT22;15238;49.082;9.102;2022-11-15T04:51:44;9.20;99.90
27890;DHT22;15238;49.082;9.102;2022-11-15T04:53:44;9.10;99.90
27890;DHT22;15238;49.082;9.102;2022-11-15T04:55:46;9.10;99.90
27890;DHT22;15238;49.082;9.102;2022-11-15T04:57:46;9.20;99.90
27890;DHT22;15238;49.082;9.102;2022-11-15T04:59:47;9.20;99.90
27890;DHT22;15238;49.082;9.102;2022-11-15T05:01:47;9.20;99.90
27890;DHT22;15238;49.082;9.102;2022-11-15T05:03:48;9.20;99.90
27890;DHT22;15238;49.082;9.102;2022-11-15T05:06:07;9.10;99.90
27890;DHT22;15238;49.082;9.102;2022-11-15T05:08:08;9.10;99.90
27890;DHT22;15238;49.082;9.102;2022-11-15T05:10:09;9.10;99.90
27890;DHT22;15238;49.082;9.102;2022-11-15T05:12:09;9.20;99.90
27890;DHT22;15238;49.082;9.102;2022-11-15T05:14:10;9.10;99.90
27890;DHT22;15238;49.082;9.102;2022-11-15T05:16:10;9.10;99.90
27890;DHT22;15238;49.082;9.102;2022-11-15T05:18:11;9.10;99.90
27890;DHT22;15238;49.082;9.102;2022-11-15T05:20:11;9.10;99.90
27890;DHT22;15238;49.082;9.102;2022-11-15T05:22:12;9.00;99.90
27890;DHT22;15238;49.082;9.102;2022-11-15T05:24:13;9.00;99.90
27890;DHT22;15238;49.082;9.102;2022-11-15T05:26:15;8.90;99.90
27890;DHT22;15238;49.082;9.102;2022-11-15T05:28:16;8.90;99.90
27890;DHT22;15238;49.082;9.102;2022-11-15T05:30:16;8.80;99.90
27890;DHT22;15238;49.082;9.102;2022-11-15T05:32:27;8.80;99.90
27890;DHT22;15238;49.082;9.102;2022-11-15T05:34:28;8.70;99.90
27890;DHT22;15238;49.082;9.102;2022-11-15T05:36:36;8.60;99.90
27890;DHT22;15238;49.082;9.102;2022-11-15T05:38:38;8.60;99.90
27890;DHT22;15238;49.082;9.102;2022-11-15T05:40:38;8.50;99.90
27890;DHT22;15238;49.082;9.102;2022-11-15T05:42:39;8.60;99.90
27890;DHT22;15238;49.082;9.102;2022-11-15T05:44:44;8.50;99.90
27890;DHT22;15238;49.082;9.102;2022-11-15T05:46:45;8.50;99.90
27890;DHT22;15238;49.082;9.102;2022-11-15T05:48:49;8.50;99.90
27890;DHT22;15238;49.082;9.102;2022-11-15T05:50:50;8.50;99.90
27890;DHT22;15238;49.082;9.102;2022-11-15T05:52:51;8.50;99.90
27890;DHT22;15238;49.082;9.102;2022-11-15T05:54:52;8.50;99.90
27890;DHT22;15238;49.082;9.102;2022-11-15T05:56:53;8.50;99.90
27890;DHT22;15238;49.082;9.102;2022-11-15T05:58:55;8.50;99.90
27890;DHT22;15238;49.082;9.102;2022-11-15T06:00:56;8.40;99.90
27890;DHT22;15238;49.082;9.102;2022-11-15T06:02:57;8.40;99.90
27890;DHT22;15238;49.082;9.102;2022-11-15T06:04:57;8.40;99.90
27890;DHT22;15238;49.082;9.102;2022-11-15T06:06:59;8.40;99.90
27890;DHT22;15238;49.082;9.102;2022-11-15T06:08:59;8.40;99.90
27890;DHT22;15238;49.082;9.102;2022-11-15T06:11:04;8.40;99.90
27890;DHT22;15238;49.082;9.102;2022-11-15T06:13:05;8.40;99.90
27890;DHT22;15238;49.082;9.102;2022-11-15T06:15:06;8.40;99.90
27890;DHT22;15238;49.082;9.102;2022-11-15T06:17:07;8.40;99.90
27890;DHT22;15238;49.082;9.102;2022-11-15T06:19:07;8.40;99.90
27890;DHT22;15238;49.082;9.102;2022-11-15T06:21:08;8.40;99.90
27890;DHT22;15238;49.082;9.102;2022-11-15T06:23:09;8.40;99.90
27890;DHT22;15238;49.082;9.102;2022-11-15T06:25:09;8.40;99.90
27890;DHT22;15238;49.082;9.102;2022-11-15T06:27:11;8.50;99.90
27890;DHT22;15238;49.082;9.102;2022-11-15T06:29:12;8.50;99.90
27890;DHT22;15238;49.082;9.102;2022-11-15T06:31:12;8.50;99.90
27890;DHT22;15238;49.082;9.102;2022-11-15T06:33:13;8.50;99.90
27890;DHT22;15238;49.082;9.102;2022-11-15T06:35:14;8.60;99.90
27890;DHT22;15238;49.082;9.102;2022-11-15T06:37:14;8.60;99.90
27890;DHT22;15238;49.082;9.102;2022-11-15T06:39:15;8.60;99.90
27890;DHT22;15238;49.082;9.102;2022-11-15T06:41:15;8.60;99.90
27890;DHT22;15238;49.082;9.102;2022-11-15T06:43:17;8.60;99.90
27890;DHT22;15238;49.082;9.102;2022-11-15T06:45:17;8.60;99.90
27890;DHT22;15238;49.082;9.102;2022-11-15T06:47:18;8.50;99.90
27890;DHT22;15238;49.082;9.102;2022-11-15T06:49:18;8.50;99.90
27890;DHT22;15238;49.082;9.102;2022-11-15T06:51:19;8.50;99.90
27890;DHT22;15238;49.082;9.102;2022-11-15T06:53:19;8.40;99.90
27890;DHT22;15238;49.082;9.102;2022-11-15T06:55:20;8.40;99.90
27890;DHT22;15238;49.082;9.102;2022-11-15T06:57:20;8.40;99.90
27890;DHT22;15238;49.082;9.102;2022-11-15T06:59:21;8.40;99.90
27890;DHT22;15238;49.082;9.102;2022-11-15T07:01:21;8.50;99.90
27890;DHT22;15238;49.082;9.102;2022-11-15T07:03:22;8.50;99.90
27890;DHT22;15238;49.082;9.102;2022-11-15T07:05:22;8.60;99.90
27890;DHT22;15238;49.082;9.102;2022-11-15T07:07:23;8.70;99.90
27890;DHT22;15238;49.082;9.102;2022-11-15T07:09:24;8.80;99.90
27890;DHT22;15238;49.082;9.102;2022-11-15T07:11:24;8.80;99.90
27890;DHT22;15238;49.082;9.102;2022-11-15T07:13:26;8.80;99.90
27890;DHT22;15238;49.082;9.102;2022-11-15T07:15:27;8.80;99.90
27890;DHT22;15238;49.082;9.102;2022-11-15T07:17:27;8.70;99.90
27890;DHT22;15238;49.082;9.102;2022-11-15T07:19:28;8.80;99.90
27890;DHT22;15238;49.082;9.102;2022-11-15T07:21:28;8.70;99.90
27890;DHT22;15238;49.082;9.102;2022-11-15T07:23:29;8.80;99.90
27890;DHT22;15238;49.082;9.102;2022-11-15T07:25:30;8.80;99.90
27890;DHT22;15238;49.082;9.102;2022-11-15T07:27:30;8.90;99.90
27890;DHT22;15238;49.082;9.102;2022-11-15T07:29:31;9.00;99.90
27890;DHT22;15238;49.082;9.102;2022-11-15T07:31:31;9.10;99.90
27890;DHT22;15238;49.082;9.102;2022-11-15T07:33:32;9.10;99.90
27890;DHT22;15238;49.082;9.102;2022-11-15T07:35:33;9.20;99.90
27890;DHT22;15238;49.082;9.102;2022-11-15T07:37:34;9.20;99.90
27890;DHT22;15238;49.082;9.102;2022-11-15T07:39:34;9.20;99.90
27890;DHT22;15238;49.082;9.102;2022-11-15T07:41:35;9.30;99.90
27890;DHT22;15238;49.082;9.102;2022-11-15T07:43:35;9.40;99.90
27890;DHT22;15238;49.082;9.102;2022-11-15T07:45:41;9.50;99.90
27890;DHT22;15238;49.082;9.102;2022-11-15T07:47:45;9.60;99.90
27890;DHT22;15238;49.082;9.102;2022-11-15T07:49:46;9.70;99.90
27890;DHT22;15238;49.082;9.102;2022-11-15T07:51:47;9.80;99.90
27890;DHT22;15238;49.082;9.102;2022-11-15T07:53:47;10.00;99.90
27890;DHT22;15238;49.082;9.102;2022-11-15T07:55:48;10.00;99.90
27890;DHT22;15238;49.082;9.102;2022-11-15T07:57:49;10.00;99.90
27890;DHT22;15238;49.082;9.102;2022-11-15T07:59:49;10.00;99.90
27890;DHT22;15238;49.082;9.102;2022-11-15T08:01:50;10.00;99.90
27890;DHT22;15238;49.082;9.102;2022-11-15T08:03:50;10.00;99.90
27890;DHT22;15238;49.082;9.102;2022-11-15T08:05:51;10.10;99.90
27890;DHT22;15238;49.082;9.102;2022-11-15T08:07:55;10.10;99.90
27890;DHT22;15238;49.082;9.102;2022-11-15T08:09:56;10.20;99.90
27890;DHT22;15238;49.082;9.102;2022-11-15T08:11:56;10.20;99.90
27890;DHT22;15238;49.082;9.102;2022-11-15T08:13:58;10.30;99.90
27890;DHT22;15238;49.082;9.102;2022-11-15T08:16:00;10.30;99.90
27890;DHT22;15238;49.082;9.102;2022-11-15T08:18:03;10.30;99.90
27890;DHT22;15238;49.082;9.102;2022-11-15T08:20:05;10.40;99.90
27890;DHT22;15238;49.082;9.102;2022-11-15T08:22:05;10.40;99.90
27890;DHT22;15238;49.082;9.102;2022-11-15T08:24:09;10.50;99.90
27890;DHT22;15238;49.082;9.102;2022-11-15T08:26:10;10.70;99.90
27890;DHT22;15238;49.082;9.102;2022-11-15T08:28:10;11.00;99.90
27890;DHT22;15238;49.082;9.102;2022-11-15T08:30:11;11.20;99.90
27890;DHT22;15238;49.082;9.102;2022-11-15T08:32:12;11.30;99.90
27890;DHT22;15238;49.082;9.102;2022-11-15T08:34:13;11.50;99.90
27890;DHT22;15238;49.082;9.102;2022-11-15T08:36:15;11.60;99.90
27890;DHT22;15238;49.082;9.102;2022-11-15T08:38:16;11.70;99.90
27890;DHT22;15238;49.082;9.102;2022-11-15T08:40:17;11.70;99.90
27890;DHT22;15238;49.082;9.102;2022-11-15T08:42:18;11.70;99.90
27890;DHT22;15238;49.082;9.102;2022-11-15T08:44:19;11.70;99.90
27890;DHT22;15238;49.082;9.102;2022-11-15T08:46:20;11.70;99.90
27890;DHT22;15238;49.082;9.102;2022-11-15T08:48:20;11.70;99.90
27890;DHT22;15238;49.082;9.102;2022-11-15T08:50:21;11.70;99.90
27890;DHT22;15238;49.082;9.102;2022-11-15T08:52:21;11.70;99.90
27890;DHT22;15238;49.082;9.102;2022-11-15T08:54:22;11.80;99.90
27890;DHT22;15238;49.082;9.102;2022-11-15T08:56:22;11.90;99.90
27890;DHT22;15238;49.082;9.102;2022-11-15T08:58:23;11.90;99.90
27890;DHT22;15238;49.082;9.102;2022-11-15T09:00:24;12.00;99.90
27890;DHT22;15238;49.082;9.102;2022-11-15T09:02:24;12.10;99.90
27890;DHT22;15238;49.082;9.102;2022-11-15T09:04:25;12.10;99.90
27890;DHT22;15238;49.082;9.102;2022-11-15T09:06:25;12.10;99.90
27890;DHT22;15238;49.082;9.102;2022-11-15T09:08:30;12.10;99.90
27890;DHT22;15238;49.082;9.102;2022-11-15T09:10:31;12.10;99.90
27890;DHT22;15238;49.082;9.102;2022-11-15T09:12:31;12.20;99.90
27890;DHT22;15238;49.082;9.102;2022-11-15T09:14:32;12.20;99.90
27890;DHT22;15238;49.082;9.102;2022-11-15T09:16:33;12.30;99.90
27890;DHT22;15238;49.082;9.102;2022-11-15T09:18:34;12.30;99.90
27890;DHT22;15238;49.082;9.102;2022-11-15T09:20:34;12.30;99.90
27890;DHT22;15238;49.082;9.102;2022-11-15T09:22:35;12.30;99.90
27890;DHT22;15238;49.082;9.102;2022-11-15T09:24:36;12.40;99.90
27890;DHT22;15238;49.082;9.102;2022-11-15T09:26:37;12.50;99.90
27890;DHT22;15238;49.082;9.102;2022-11-15T09:28:37;12.50;99.90
27890;DHT22;15238;49.082;9.102;2022-11-15T09:30:41;12.50;99.90
27890;DHT22;15238;49.082;9.102;2022-11-15T09:32:42;12.60;99.90
27890;DHT22;15238;49.082;9.102;2022-11-15T09:34:42;12.70;99.90
27890;DHT22;15238;49.082;9.102;2022-11-15T09:36:43;12.70;99.90
27890;DHT22;15238;49.082;9.102;2022-11-15T09:38:44;12.70;99.90
27890;DHT22;15238;49.082;9.102;2022-11-15T09:40:50;12.70;99.90
27890;DHT22;15238;49.082;9.102;2022-11-15T09:47:49;12.60;99.90
27890;DHT22;15238;49.082;9.102;2022-11-15T09:49:54;12.60;99.90
27890;DHT22;15238;49.082;9.102;2022-11-15T09:51:57;12.70;99.90
27890;DHT22;15238;49.082;9.102;2022-11-15T09:54:05;12.70;99.90
27890;DHT22;15238;49.082;9.102;2022-11-15T09:56:20;12.70;99.90
27890;DHT22;15238;49.082;9.102;2022-11-15T09:58:36;12.70;99.90
27890;DHT22;15238;49.082;9.102;2022-11-15T10:00:44;12.80;99.90
27890;DHT22;15238;49.082;9.102;2022-11-15T10:03:08;12.90;99.90
27890;DHT22;15238;49.082;9.102;2022-11-15T10:05:14;12.90;99.90
27890;DHT22;15238;49.082;9.102;2022-11-15T10:07:20;12.90;99.90
27890;DHT22;15238;49.082;9.102;2022-11-15T10:11:44;12.90;99.90
27890;DHT22;15238;49.082;9.102;2022-11-15T10:13:46;12.90;99.90
27890;DHT22;15238;49.082;9.102;2022-11-15T10:15:51;12.90;99.90
27890;DHT22;15238;49.082;9.102;2022-11-15T10:18:15;12.80;99.90
27890;DHT22;15238;49.082;9.102;2022-11-15T10:20:23;12.80;99.90
27890;DHT22;15238;49.082;9.102;2022-11-15T10:23:11;12.80;99.90
27890;DHT22;15238;49.082;9.102;2022-11-15T10:25:01;12.80;99.90
27890;DHT22;15238;49.082;9.102;2022-11-15T10:27:13;12.90;99.90
27890;DHT22;15238;49.082;9.102;2022-11-15T10:29:24;12.80;99.90
27890;DHT22;15238;49.082;9.102;2022-11-15T10:31:27;12.80;99.90
27890;DHT22;15238;49.082;9.102;2022-11-15T10:33:35;12.80;99.90
27890;DHT22;15238;49.082;9.102;2022-11-15T10:35:36;12.80;99.90
27890;DHT22;15238;49.082;9.102;2022-11-15T10:37:36;12.80;99.90
27890;DHT22;15238;49.082;9.102;2022-11-15T10:39:37;12.80;99.90
27890;DHT22;15238;49.082;9.102;2022-11-15T10:41:39;12.80;99.90
27890;DHT22;15238;49.082;9.102;2022-11-15T10:43:40;12.80;99.90
27890;DHT22;15238;49.082;9.102;2022-11-15T10:45:41;12.80;99.90
27890;DHT22;15238;49.082;9.102;2022-11-15T10:47:42;12.80;99.90
27890;DHT22;15238;49.082;9.102;2022-11-15T10:50:04;12.80;99.90
27890;DHT22;15238;49.082;9.102;2022-11-15T10:54:12;12.80;99.90
27890;DHT22;15238;49.082;9.102;2022-11-15T10:56:14;12.80;99.90
27890;DHT22;15238;49.082;9.102;2022-11-15T10:58:35;12.70;99.90
27890;DHT22;15238;49.082;9.102;2022-11-15T11:00:37;12.80;99.90
27890;DHT22;15238;49.082;9.102;2022-11-15T11:04:56;12.80;99.90
27890;DHT22;15238;49.082;9.102;2022-11-15T11:06:59;12.80;99.90
27890;DHT22;15238;49.082;9.102;2022-11-15T11:09:04;12.80;99.90
27890;DHT22;15238;49.082;9.102;2022-11-15T11:11:06;12.90;99.90
27890;DHT22;15238;49.082;9.102;2022-11-15T11:13:32;12.90;99.90
27890;DHT22;15238;49.082;9.102;2022-11-15T11:15:32;12.90;99.90
27890;DHT22;15238;49.082;9.102;2022-11-15T11:24:56;12.90;99.90
27890;DHT22;15238;49.082;9.102;2022-11-15T11:34:09;12.80;99.90
27890;DHT22;15238;49.082;9.102;2022-11-15T11:36:39;12.80;99.90
27890;DHT22;15238;49.082;9.102;2022-11-15T11:47:40;12.90;99.90
27890;DHT22;15238;49.082;9.102;2022-11-15T11:49:51;13.00;99.90
27890;DHT22;15238;49.082;9.102;2022-11-15T11:51:54;13.00;99.90
27890;DHT22;15238;49.082;9.102;2022-11-15T11:54:05;13.20;99.90
27890;DHT22;15238;49.082;9.102;2022-11-15T11:56:22;13.20;99.90
27890;DHT22;15238;49.082;9.102;2022-11-15T11:58:43;13.30;99.90
27890;DHT22;15238;49.082;9.102;2022-11-15T12:01:20;13.40;99.90
27890;DHT22;15238;49.082;9.102;2022-11-15T12:03:34;13.60;99.90
27890;DHT22;15238;49.082;9.102;2022-11-15T12:07:46;13.70;99.90
27890;DHT22;15238;49.082;9.102;2022-11-15T12:12:14;13.80;99.90
27890;DHT22;15238;49.082;9.102;2022-11-15T12:14:32;13.90;99.90
27890;DHT22;15238;49.082;9.102;2022-11-15T12:16:34;14.00;99.90
27890;DHT22;15238;49.082;9.102;2022-11-15T12:18:34;14.00;99.90
27890;DHT22;15238;49.082;9.102;2022-11-15T12:20:39;14.10;99.90
27890;DHT22;15238;49.082;9.102;2022-11-15T12:25:03;14.20;99.90
27890;DHT22;15238;49.082;9.102;2022-11-15T12:27:30;14.30;99.90
27890;DHT22;15238;49.082;9.102;2022-11-15T12:29:40;14.40;99.90
27890;DHT22;15238;49.082;9.102;2022-11-15T12:31:47;14.40;99.90
27890;DHT22;15238;49.082;9.102;2022-11-15T12:33:49;14.40;99.90
27890;DHT22;15238;49.082;9.102;2022-11-15T12:35:58;14.40;99.90
27890;DHT22;15238;49.082;9.102;2022-11-15T12:37:59;14.30;99.90
27890;DHT22;15238;49.082;9.102;2022-11-15T12:55:33;14.20;99.90
27890;DHT22;15238;49.082;9.102;2022-11-15T12:57:35;14.10;99.90
27890;DHT22;15238;49.082;9.102;2022-11-15T13:01:56;14.10;99.90
27890;DHT22;15238;49.082;9.102;2022-11-15T13:06:40;13.90;99.90
27890;DHT22;15238;49.082;9.102;2022-11-15T13:08:44;13.90;99.90
27890;DHT22;15238;49.082;9.102;2022-11-15T13:10:47;13.90;99.90
27890;DHT22;15238;49.082;9.102;2022-11-15T13:12:50;13.90;99.90
27890;DHT22;15238;49.082;9.102;2022-11-15T13:14:58;13.80;99.90
27890;DHT22;15238;49.082;9.102;2022-11-15T13:16:59;13.80;99.90
27890;DHT22;15238;49.082;9.102;2022-11-15T13:19:01;13.80;99.90
27890;DHT22;15238;49.082;9.102;2022-11-15T13:21:04;13.80;99.90
27890;DHT22;15238;49.082;9.102;2022-11-15T13:23:27;13.80;99.90
27890;DHT22;15238;49.082;9.102;2022-11-15T13:25:50;13.90;99.90
27890;DHT22;15238;49.082;9.102;2022-11-15T13:27:53;13.90;99.90
27890;DHT22;15238;49.082;9.102;2022-11-15T13:29:57;13.90;99.90
27890;DHT22;15238;49.082;9.102;2022-11-15T13:31:58;13.90;99.90
27890;DHT22;15238;49.082;9.102;2022-11-15T13:36:25;13.90;99.90
27890;DHT22;15238;49.082;9.102;2022-11-15T13:38:33;13.90;99.90
27890;DHT22;15238;49.082;9.102;2022-11-15T13:40:36;14.00;99.90
27890;DHT22;15238;49.082;9.102;2022-11-15T13:42:36;14.00;99.90
27890;DHT22;15238;49.082;9.102;2022-11-15T13:44:37;14.10;99.90
27890;DHT22;15238;49.082;9.102;2022-11-15T13:46:38;14.10;99.90
27890;DHT22;15238;49.082;9.102;2022-11-15T13:48:40;14.10;99.90
27890;DHT22;15238;49.082;9.102;2022-11-15T13:50:41;14.10;99.90
27890;DHT22;15238;49.082;9.102;2022-11-15T13:52:44;14.10;99.90
27890;DHT22;15238;49.082;9.102;2022-11-15T13:54:55;14.00;99.90
27890;DHT22;15238;49.082;9.102;2022-11-15T13:59:35;14.00;99.90
27890;DHT22;15238;49.082;9.102;2022-11-15T14:01:35;14.00;99.90
27890;DHT22;15238;49.082;9.102;2022-11-15T14:03:59;14.00;99.90
27890;DHT22;15238;49.082;9.102;2022-11-15T14:12:31;14.00;99.90
27890;DHT22;15238;49.082;9.102;2022-11-15T14:14:32;13.90;99.90
27890;DHT22;15238;49.082;9.102;2022-11-15T14:16:37;13.90;99.90
27890;DHT22;15238;49.082;9.102;2022-11-15T14:18:50;13.90;99.90
27890;DHT22;15238;49.082;9.102;2022-11-15T14:21:06;13.90;99.90
27890;DHT22;15238;49.082;9.102;2022-11-15T14:23:27;13.80;99.90
27890;DHT22;15238;49.082;9.102;2022-11-15T14:25:35;13.80;99.90
27890;DHT22;15238;49.082;9.102;2022-11-15T14:27:35;13.70;99.90
27890;DHT22;15238;49.082;9.102;2022-11-15T14:29:36;13.70;99.90
27890;DHT22;15238;49.082;9.102;2022-11-15T14:31:36;13.70;99.90
27890;DHT22;15238;49.082;9.102;2022-11-15T14:33:37;13.70;99.90
27890;DHT22;15238;49.082;9.102;2022-11-15T14:35:39;13.70;99.90
27890;DHT22;15238;49.082;9.102;2022-11-15T14:37:39;13.70;99.90
27890;DHT22;15238;49.082;9.102;2022-11-15T14:39:40;13.70;99.90
27890;DHT22;15238;49.082;9.102;2022-11-15T14:41:40;13.70;99.90
27890;DHT22;15238;49.082;9.102;2022-11-15T14:43:41;13.70;99.90
27890;DHT22;15238;49.082;9.102;2022-11-15T14:45:42;13.70;99.90
27890;DHT22;15238;49.082;9.102;2022-11-15T14:47:43;13.60;99.90
27890;DHT22;15238;49.082;9.102;2022-11-15T14:49:44;13.60;99.90
27890;DHT22;15238;49.082;9.102;2022-11-15T14:51:44;13.60;99.90